x

Settlement Point, Gbi (spgf1) Weather Station

6:00am - Thu 29th Jan 2015 All times are EST. -5 hours from GMT.

  • Wind
    14mph, 15mph gusts
  • Air Temp 63°f
  • Sea Pressure 1023.7mb
  • Settlement Point, Gbi
  • Settlement Point, Gbi

More Historic Weather Station data

Upgrade to MSW Pro to gain access to the past 30 days of data for over 8000 Wavebouys and Weather Stations around the globe.

Join Pro

Comparision Forecast

View Surf forecast
   
Thu 01/29 6:00am 14 15 mph 1023.7mb 63f
5:00am 16 20 mph 1023.3mb 63f
4:00am 21 25 mph 1023.3mb 63f
3:00am 17 21 mph 1023.1mb 63f
2:00am 22 24 mph 1023mb 64f
1:00am 21 24 mph 1023mb 64f
12:00am 22 23 mph 1022.5mb 64f
Wed 01/28 11:00pm 20 21 mph 1022.9mb 64f
10:00pm 14 15 mph 1022.8mb 65f
9:00pm 15 18 mph 1022.9mb 65f
8:00pm 21 22 mph 1022.4mb 64f
7:00pm 18 20 mph 1021.6mb 65f
6:00pm 18 20 mph 1021.1mb 64f
5:00pm 18 22 mph 1020.8mb 65f
4:00pm 20 22 mph 1020.1mb 65f
3:00pm 18 24 mph 1019.7mb 65f
2:00pm 16 17 mph 1019.8mb 65f
1:00pm 15 16 mph 1020.1mb 65f
12:00pm 18 22 mph 1021mb 64f
11:00am 20 24 mph 1021.3mb 64f
10:00am 17 20 mph 1021mb 65f
9:00am 16 18 mph 1020mb 65f
8:00am 21 24 mph 1019.3mb 65f
7:00am 21 24 mph 1018.3mb 65f
6:00am 22 24 mph 1017.6mb 66f
5:00am 20 24 mph 1016.9mb 66f
4:00am 16 18 mph 1016.5mb 65f
3:00am 24 29 mph 1016.5mb 65f
2:00am 26 30 mph 1016.5mb 67f
1:00am 26 30 mph 1016.5mb 67f
12:00am 28 31 mph 1016.6mb 67f
Tue 01/27 11:00pm 30 33 mph 1016.8mb 67f
10:00pm 24 30 mph 1016.6mb 67f
9:00pm 22 26 mph 1016.2mb 68f
8:00pm 22 25 mph 1015.9mb 69f
7:00pm 22 28 mph 1015.7mb 67f
6:00pm 18 23 mph 1015.5mb 66f
5:00pm 22 24 mph 1015.2mb 65f
4:00pm 21 23 mph 1015.2mb 64f
3:00pm 17 21 mph 1015.2mb 62f
2:00pm 21 22 mph 1015.5mb 62f
1:00pm 22 28 mph 1015.9mb 62f
12:00pm 23 26 mph 1016.9mb 62f
11:00am 24 28 mph 1017.5mb 62f
10:00am 25 29 mph 1017.1mb 62f
9:00am 25 26 mph 1016.7mb 61f
8:00am 24 29 mph 1016.4mb 62f
7:00am 26 31 mph 1015.5mb 61f
6:00am 26 31 mph 1014.8mb 61f
5:00am 30 33 mph 1013.9mb 62f
4:00am 29 33 mph 1013.7mb 62f
3:00am 26 33 mph 1013.5mb 62f
2:00am 32 39 mph 1014mb 62f
1:00am 31 34 mph 1014mb 63f
12:00am 30 32 mph 1014mb 64f
Mon 01/26 11:00pm 31 34 mph 1013.5mb 65f
10:00pm 30 33 mph 1013.3mb 66f
9:00pm 29 36 mph 1012.9mb 67f
8:00pm 26 34 mph 1012.5mb 69f
7:00pm 29 33 mph 1012.1mb 70f
6:00pm 29 34 mph 1011.5mb 71f
5:00pm 30 33 mph 1011.1mb 71f
4:00pm 31 34 mph 1010.5mb 71f
3:00pm 30 34 mph 1010.3mb 70f
2:00pm 26 30 mph 1010.7mb 69f
1:00pm 26 28 mph 1011.6mb 67f
12:00pm 29 33 mph 1012.3mb 69f
11:00am 39 44 mph 1012.6mb 71f
10:00am 30 36 mph 1013.3mb 71f
9:00am 25 28 mph 1013.4mb 70f
8:00am 25 29 mph 1013.4mb 68f
7:00am 24 29 mph 1013.9mb 67f
6:00am 26 30 mph 1013.9mb 66f
5:00am 16 18 mph 1013.7mb 65f
4:00am 23 29 mph 1014.4mb 65f
3:00am 25 29 mph 1014.3mb 66f
2:00am 15 17 mph 1014.2mb 66f
1:00am 16 20 mph 1015.2mb 67f
12:00am 15 20 mph 1015.8mb 66f
Sun 01/25 11:00pm 15 18 mph 1017mb 67f
10:00pm 10 13 mph 1017.2mb 67f
9:00pm 13 14 mph 1017.2mb 66f
8:00pm 8 9 mph 1016.8mb 66f
7:00pm 7 9 mph 1016.3mb 66f
6:00pm 6 7 mph 1015.8mb 66f
5:00pm 6 7 mph 1015.9mb 66f
4:00pm 8 10 mph 1016mb 66f
3:00pm 6 8 mph 1016.1mb 67f
2:00pm 5 7 mph 1016.4mb 66f
1:00pm 6 7 mph 1017.1mb 66f